sensor_id;sensor_type;location;lat;lon;timestamp;P1;durP1;ratioP1;P2;durP2;ratioP2
70667;SDS011;58242;51.250;-1.118;2023-02-01T00:01:37;13.43;;;5.25;;
70667;SDS011;58242;51.250;-1.118;2023-02-01T00:04:02;16.70;;;5.20;;
70667;SDS011;58242;51.250;-1.118;2023-02-01T00:06:28;11.05;;;4.38;;
70667;SDS011;58242;51.250;-1.118;2023-02-01T00:08:53;8.00;;;3.75;;
70667;SDS011;58242;51.250;-1.118;2023-02-01T00:11:19;9.55;;;4.18;;
70667;SDS011;58242;51.250;-1.118;2023-02-01T00:13:45;9.48;;;4.47;;
70667;SDS011;58242;51.250;-1.118;2023-02-01T00:16:12;9.48;;;4.60;;
70667;SDS011;58242;51.250;-1.118;2023-02-01T00:18:41;12.68;;;5.20;;
70667;SDS011;58242;51.250;-1.118;2023-02-01T00:21:07;15.65;;;4.30;;
70667;SDS011;58242;51.250;-1.118;2023-02-01T00:23:33;13.95;;;4.45;;
70667;SDS011;58242;51.250;-1.118;2023-02-01T00:26:03;6.13;;;3.90;;
70667;SDS011;58242;51.250;-1.118;2023-02-01T00:28:29;11.27;;;4.43;;
70667;SDS011;58242;51.250;-1.118;2023-02-01T00:30:58;9.52;;;4.32;;
70667;SDS011;58242;51.250;-1.118;2023-02-01T00:33:24;15.63;;;4.28;;
70667;SDS011;58242;51.250;-1.118;2023-02-01T00:35:50;19.90;;;6.10;;
70667;SDS011;58242;51.250;-1.118;2023-02-01T00:38:15;8.98;;;4.20;;
70667;SDS011;58242;51.250;-1.118;2023-02-01T00:40:41;8.45;;;4.43;;
70667;SDS011;58242;51.250;-1.118;2023-02-01T00:43:06;13.63;;;4.80;;
70667;SDS011;58242;51.250;-1.118;2023-02-01T00:45:31;10.00;;;4.50;;
70667;SDS011;58242;51.250;-1.118;2023-02-01T00:47:57;14.75;;;5.43;;
70667;SDS011;58242;51.250;-1.118;2023-02-01T00:50:22;15.27;;;5.82;;
70667;SDS011;58242;51.250;-1.118;2023-02-01T00:52:47;14.20;;;4.97;;
70667;SDS011;58242;51.250;-1.118;2023-02-01T00:55:13;12.02;;;5.25;;
70667;SDS011;58242;51.250;-1.118;2023-02-01T00:57:38;16.88;;;5.72;;
70667;SDS011;58242;51.250;-1.118;2023-02-01T01:00:03;12.98;;;5.43;;
70667;SDS011;58242;51.250;-1.118;2023-02-01T01:02:29;16.63;;;5.15;;
70667;SDS011;58242;51.250;-1.118;2023-02-01T01:04:54;10.55;;;5.03;;
70667;SDS011;58242;51.250;-1.118;2023-02-01T01:07:20;12.43;;;4.65;;
70667;SDS011;58242;51.250;-1.118;2023-02-01T01:09:46;7.47;;;4.30;;
70667;SDS011;58242;51.250;-1.118;2023-02-01T01:12:11;11.93;;;4.80;;
70667;SDS011;58242;51.250;-1.118;2023-02-01T01:14:36;17.70;;;5.85;;
70667;SDS011;58242;51.250;-1.118;2023-02-01T01:17:02;17.70;;;5.50;;
70667;SDS011;58242;51.250;-1.118;2023-02-01T01:19:27;12.23;;;4.72;;
70667;SDS011;58242;51.250;-1.118;2023-02-01T01:21:52;11.35;;;5.10;;
70667;SDS011;58242;51.250;-1.118;2023-02-01T01:24:17;12.23;;;5.80;;
70667;SDS011;58242;51.250;-1.118;2023-02-01T01:26:43;12.00;;;5.00;;
70667;SDS011;58242;51.250;-1.118;2023-02-01T01:29:08;12.20;;;5.05;;
70667;SDS011;58242;51.250;-1.118;2023-02-01T01:31:34;9.40;;;5.28;;
70667;SDS011;58242;51.250;-1.118;2023-02-01T01:33:59;6.40;;;4.72;;
70667;SDS011;58242;51.250;-1.118;2023-02-01T01:36:25;10.60;;;4.97;;
70667;SDS011;58242;51.250;-1.118;2023-02-01T01:38:51;18.65;;;5.47;;
70667;SDS011;58242;51.250;-1.118;2023-02-01T01:41:22;21.50;;;6.63;;
70667;SDS011;58242;51.250;-1.118;2023-02-01T01:43:51;17.25;;;5.85;;
70667;SDS011;58242;51.250;-1.118;2023-02-01T01:46:19;18.08;;;5.93;;
70667;SDS011;58242;51.250;-1.118;2023-02-01T01:48:50;11.93;;;5.63;;
70667;SDS011;58242;51.250;-1.118;2023-02-01T01:51:22;11.90;;;5.20;;
70667;SDS011;58242;51.250;-1.118;2023-02-01T01:53:53;9.73;;;5.32;;
70667;SDS011;58242;51.250;-1.118;2023-02-01T01:56:23;10.50;;;4.78;;
70667;SDS011;58242;51.250;-1.118;2023-02-01T01:58:51;11.77;;;5.40;;
70667;SDS011;58242;51.250;-1.118;2023-02-01T02:01:17;7.63;;;4.32;;
70667;SDS011;58242;51.250;-1.118;2023-02-01T02:03:43;12.25;;;4.90;;
70667;SDS011;58242;51.250;-1.118;2023-02-01T02:06:14;11.57;;;4.68;;
70667;SDS011;58242;51.250;-1.118;2023-02-01T02:08:44;10.45;;;4.93;;
70667;SDS011;58242;51.250;-1.118;2023-02-01T02:11:10;10.93;;;4.97;;
70667;SDS011;58242;51.250;-1.118;2023-02-01T02:13:40;13.55;;;5.63;;
70667;SDS011;58242;51.250;-1.118;2023-02-01T02:19:10;12.85;;;5.60;;
70667;SDS011;58242;51.250;-1.118;2023-02-01T02:21:52;12.98;;;5.82;;
70667;SDS011;58242;51.250;-1.118;2023-02-01T02:27:28;12.13;;;5.43;;
70667;SDS011;58242;51.250;-1.118;2023-02-01T02:41:30;16.25;;;5.82;;
70667;SDS011;58242;51.250;-1.118;2023-02-01T02:44:35;10.98;;;4.40;;
70667;SDS011;58242;51.250;-1.118;2023-02-01T02:47:33;13.55;;;4.80;;
70667;SDS011;58242;51.250;-1.118;2023-02-01T02:50:24;12.45;;;5.07;;
70667;SDS011;58242;51.250;-1.118;2023-02-01T02:53:17;10.43;;;4.65;;
70667;SDS011;58242;51.250;-1.118;2023-02-01T02:56:05;10.30;;;3.97;;
70667;SDS011;58242;51.250;-1.118;2023-02-01T02:58:51;12.55;;;4.72;;
70667;SDS011;58242;51.250;-1.118;2023-02-01T03:01:36;10.00;;;4.68;;
70667;SDS011;58242;51.250;-1.118;2023-02-01T03:04:22;7.85;;;4.82;;
70667;SDS011;58242;51.250;-1.118;2023-02-01T03:06:48;6.82;;;4.55;;
70667;SDS011;58242;51.250;-1.118;2023-02-01T03:09:33;17.17;;;4.47;;
70667;SDS011;58242;51.250;-1.118;2023-02-01T03:12:04;16.52;;;5.80;;
70667;SDS011;58242;51.250;-1.118;2023-02-01T03:14:53;19.83;;;5.05;;
70667;SDS011;58242;51.250;-1.118;2023-02-01T03:17:26;13.02;;;5.10;;
70667;SDS011;58242;51.250;-1.118;2023-02-01T03:19:55;10.25;;;4.38;;
70667;SDS011;58242;51.250;-1.118;2023-02-01T03:22:27;9.20;;;3.92;;
70667;SDS011;58242;51.250;-1.118;2023-02-01T03:24:59;16.55;;;5.10;;
70667;SDS011;58242;51.250;-1.118;2023-02-01T03:32:38;12.48;;;5.32;;
70667;SDS011;58242;51.250;-1.118;2023-02-01T03:35:26;14.05;;;4.63;;
70667;SDS011;58242;51.250;-1.118;2023-02-01T03:37:53;12.82;;;5.10;;
70667;SDS011;58242;51.250;-1.118;2023-02-01T03:40:26;16.52;;;5.15;;
70667;SDS011;58242;51.250;-1.118;2023-02-01T03:42:55;9.57;;;4.45;;
70667;SDS011;58242;51.250;-1.118;2023-02-01T03:45:26;11.13;;;4.68;;
70667;SDS011;58242;51.250;-1.118;2023-02-01T03:47:56;11.75;;;4.55;;
70667;SDS011;58242;51.250;-1.118;2023-02-01T03:50:25;16.80;;;5.72;;
70667;SDS011;58242;51.250;-1.118;2023-02-01T03:55:27;14.07;;;5.55;;
70667;SDS011;58242;51.250;-1.118;2023-02-01T03:58:05;9.63;;;4.82;;
70667;SDS011;58242;51.250;-1.118;2023-02-01T04:00:37;13.02;;;4.07;;
70667;SDS011;58242;51.250;-1.118;2023-02-01T04:03:04;15.85;;;5.15;;
70667;SDS011;58242;51.250;-1.118;2023-02-01T04:05:31;10.57;;;4.63;;
70667;SDS011;58242;51.250;-1.118;2023-02-01T04:07:57;14.02;;;4.55;;
70667;SDS011;58242;51.250;-1.118;2023-02-01T04:10:22;12.10;;;4.57;;
70667;SDS011;58242;51.250;-1.118;2023-02-01T04:12:48;11.68;;;4.45;;
70667;SDS011;58242;51.250;-1.118;2023-02-01T04:15:13;12.43;;;5.38;;
70667;SDS011;58242;51.250;-1.118;2023-02-01T04:17:39;7.88;;;4.40;;
70667;SDS011;58242;51.250;-1.118;2023-02-01T04:20:04;8.20;;;4.30;;
70667;SDS011;58242;51.250;-1.118;2023-02-01T04:22:30;15.48;;;4.78;;
70667;SDS011;58242;51.250;-1.118;2023-02-01T04:24:56;8.00;;;4.22;;
70667;SDS011;58242;51.250;-1.118;2023-02-01T04:27:21;13.77;;;4.95;;
70667;SDS011;58242;51.250;-1.118;2023-02-01T04:29:46;13.07;;;4.82;;
70667;SDS011;58242;51.250;-1.118;2023-02-01T04:32:14;11.02;;;4.40;;
70667;SDS011;58242;51.250;-1.118;2023-02-01T04:34:40;6.80;;;4.20;;
70667;SDS011;58242;51.250;-1.118;2023-02-01T04:37:06;7.97;;;3.53;;
70667;SDS011;58242;51.250;-1.118;2023-02-01T04:39:32;13.60;;;5.20;;
70667;SDS011;58242;51.250;-1.118;2023-02-01T04:41:57;13.05;;;5.00;;
70667;SDS011;58242;51.250;-1.118;2023-02-01T04:44:23;9.00;;;3.80;;
70667;SDS011;58242;51.250;-1.118;2023-02-01T04:46:48;11.45;;;4.80;;
70667;SDS011;58242;51.250;-1.118;2023-02-01T04:49:14;8.20;;;4.18;;
70667;SDS011;58242;51.250;-1.118;2023-02-01T04:51:40;10.50;;;4.10;;
70667;SDS011;58242;51.250;-1.118;2023-02-01T04:54:06;7.45;;;4.53;;
70667;SDS011;58242;51.250;-1.118;2023-02-01T04:56:32;10.43;;;3.95;;
70667;SDS011;58242;51.250;-1.118;2023-02-01T04:58:59;12.27;;;4.55;;
70667;SDS011;58242;51.250;-1.118;2023-02-01T05:01:27;14.70;;;5.30;;
70667;SDS011;58242;51.250;-1.118;2023-02-01T05:03:52;12.65;;;5.38;;
70667;SDS011;58242;51.250;-1.118;2023-02-01T05:06:17;11.75;;;5.07;;
70667;SDS011;58242;51.250;-1.118;2023-02-01T05:08:43;12.73;;;5.68;;
70667;SDS011;58242;51.250;-1.118;2023-02-01T05:11:08;13.45;;;5.55;;
70667;SDS011;58242;51.250;-1.118;2023-02-01T05:13:54;16.23;;;5.90;;
70667;SDS011;58242;51.250;-1.118;2023-02-01T05:16:19;15.63;;;5.25;;
70667;SDS011;58242;51.250;-1.118;2023-02-01T05:18:44;10.73;;;5.00;;
70667;SDS011;58242;51.250;-1.118;2023-02-01T05:21:10;11.88;;;5.43;;
70667;SDS011;58242;51.250;-1.118;2023-02-01T05:23:35;8.98;;;4.63;;
70667;SDS011;58242;51.250;-1.118;2023-02-01T05:26:20;17.02;;;6.13;;
70667;SDS011;58242;51.250;-1.118;2023-02-01T05:28:46;10.50;;;5.32;;
70667;SDS011;58242;51.250;-1.118;2023-02-01T05:31:11;10.88;;;5.55;;
70667;SDS011;58242;51.250;-1.118;2023-02-01T05:33:37;13.60;;;5.70;;
70667;SDS011;58242;51.250;-1.118;2023-02-01T05:36:02;9.75;;;5.45;;
70667;SDS011;58242;51.250;-1.118;2023-02-01T05:38:28;11.82;;;5.13;;
70667;SDS011;58242;51.250;-1.118;2023-02-01T05:40:54;11.38;;;5.38;;
70667;SDS011;58242;51.250;-1.118;2023-02-01T05:43:20;9.40;;;4.78;;
70667;SDS011;58242;51.250;-1.118;2023-02-01T05:45:45;15.27;;;5.95;;
70667;SDS011;58242;51.250;-1.118;2023-02-01T05:48:10;12.00;;;5.20;;
70667;SDS011;58242;51.250;-1.118;2023-02-01T05:50:36;8.50;;;5.13;;
70667;SDS011;58242;51.250;-1.118;2023-02-01T05:53:01;8.35;;;4.45;;
70667;SDS011;58242;51.250;-1.118;2023-02-01T05:55:26;9.52;;;5.53;;
70667;SDS011;58242;51.250;-1.118;2023-02-01T05:57:51;9.73;;;4.95;;
70667;SDS011;58242;51.250;-1.118;2023-02-01T06:00:17;13.93;;;5.03;;
70667;SDS011;58242;51.250;-1.118;2023-02-01T06:02:43;10.30;;;5.35;;
70667;SDS011;58242;51.250;-1.118;2023-02-01T06:05:08;11.80;;;5.72;;
70667;SDS011;58242;51.250;-1.118;2023-02-01T06:07:34;12.13;;;5.35;;
70667;SDS011;58242;51.250;-1.118;2023-02-01T06:09:59;6.03;;;4.55;;
70667;SDS011;58242;51.250;-1.118;2023-02-01T06:12:24;4.43;;;3.92;;
70667;SDS011;58242;51.250;-1.118;2023-02-01T06:14:53;4.13;;;3.92;;
70667;SDS011;58242;51.250;-1.118;2023-02-01T06:17:18;4.50;;;4.05;;
70667;SDS011;58242;51.250;-1.118;2023-02-01T06:19:43;3.72;;;3.42;;
70667;SDS011;58242;51.250;-1.118;2023-02-01T06:22:09;4.63;;;4.32;;
70667;SDS011;58242;51.250;-1.118;2023-02-01T06:24:35;4.53;;;3.60;;
70667;SDS011;58242;51.250;-1.118;2023-02-01T06:27:00;4.47;;;4.07;;
70667;SDS011;58242;51.250;-1.118;2023-02-01T06:29:25;5.93;;;4.18;;
70667;SDS011;58242;51.250;-1.118;2023-02-01T06:31:51;4.22;;;3.80;;
70667;SDS011;58242;51.250;-1.118;2023-02-01T06:34:17;4.57;;;4.05;;
70667;SDS011;58242;51.250;-1.118;2023-02-01T06:36:42;5.28;;;4.05;;
70667;SDS011;58242;51.250;-1.118;2023-02-01T06:39:07;4.68;;;3.92;;
70667;SDS011;58242;51.250;-1.118;2023-02-01T06:41:33;7.35;;;3.83;;
70667;SDS011;58242;51.250;-1.118;2023-02-01T06:43:59;6.07;;;4.22;;
70667;SDS011;58242;51.250;-1.118;2023-02-01T06:46:25;4.93;;;4.43;;
70667;SDS011;58242;51.250;-1.118;2023-02-01T06:48:50;5.47;;;4.25;;
70667;SDS011;58242;51.250;-1.118;2023-02-01T06:51:18;7.22;;;4.18;;
70667;SDS011;58242;51.250;-1.118;2023-02-01T06:53:48;4.05;;;3.75;;
70667;SDS011;58242;51.250;-1.118;2023-02-01T06:56:13;4.35;;;3.90;;
70667;SDS011;58242;51.250;-1.118;2023-02-01T06:58:39;4.60;;;4.20;;
70667;SDS011;58242;51.250;-1.118;2023-02-01T07:01:05;5.65;;;3.70;;
70667;SDS011;58242;51.250;-1.118;2023-02-01T07:03:32;3.92;;;3.40;;
70667;SDS011;58242;51.250;-1.118;2023-02-01T07:05:57;5.20;;;3.85;;
70667;SDS011;58242;51.250;-1.118;2023-02-01T07:08:29;5.97;;;3.95;;
70667;SDS011;58242;51.250;-1.118;2023-02-01T07:10:55;6.45;;;4.65;;
70667;SDS011;58242;51.250;-1.118;2023-02-01T07:13:21;4.95;;;3.75;;
70667;SDS011;58242;51.250;-1.118;2023-02-01T07:15:47;6.72;;;4.43;;
70667;SDS011;58242;51.250;-1.118;2023-02-01T07:18:13;6.82;;;4.00;;
70667;SDS011;58242;51.250;-1.118;2023-02-01T07:20:41;6.82;;;4.78;;
70667;SDS011;58242;51.250;-1.118;2023-02-01T07:23:08;4.90;;;3.60;;
70667;SDS011;58242;51.250;-1.118;2023-02-01T07:25:34;4.63;;;3.60;;
70667;SDS011;58242;51.250;-1.118;2023-02-01T07:28:00;4.50;;;4.00;;
70667;SDS011;58242;51.250;-1.118;2023-02-01T07:30:25;3.60;;;3.30;;
70667;SDS011;58242;51.250;-1.118;2023-02-01T07:32:51;3.65;;;3.35;;
70667;SDS011;58242;51.250;-1.118;2023-02-01T07:35:16;5.30;;;3.70;;
70667;SDS011;58242;51.250;-1.118;2023-02-01T07:37:41;4.43;;;3.85;;
70667;SDS011;58242;51.250;-1.118;2023-02-01T07:40:07;3.22;;;2.75;;
70667;SDS011;58242;51.250;-1.118;2023-02-01T07:42:33;5.25;;;3.85;;
70667;SDS011;58242;51.250;-1.118;2023-02-01T07:44:59;5.30;;;3.63;;
70667;SDS011;58242;51.250;-1.118;2023-02-01T07:47:24;3.90;;;3.60;;
70667;SDS011;58242;51.250;-1.118;2023-02-01T07:49:49;8.73;;;4.03;;
70667;SDS011;58242;51.250;-1.118;2023-02-01T07:52:14;3.97;;;3.63;;
70667;SDS011;58242;51.250;-1.118;2023-02-01T07:54:43;3.97;;;3.07;;
70667;SDS011;58242;51.250;-1.118;2023-02-01T07:57:08;6.80;;;3.17;;
70667;SDS011;58242;51.250;-1.118;2023-02-01T07:59:36;5.63;;;4.13;;
70667;SDS011;58242;51.250;-1.118;2023-02-01T08:02:21;7.60;;;4.10;;
70667;SDS011;58242;51.250;-1.118;2023-02-01T08:04:46;4.95;;;3.60;;
70667;SDS011;58242;51.250;-1.118;2023-02-01T08:07:12;5.50;;;3.97;;
70667;SDS011;58242;51.250;-1.118;2023-02-01T08:09:37;4.50;;;3.15;;
70667;SDS011;58242;51.250;-1.118;2023-02-01T08:12:02;9.30;;;4.15;;
70667;SDS011;58242;51.250;-1.118;2023-02-01T08:14:28;6.22;;;3.25;;
70667;SDS011;58242;51.250;-1.118;2023-02-01T08:16:53;5.95;;;3.47;;
70667;SDS011;58242;51.250;-1.118;2023-02-01T08:19:18;7.32;;;3.78;;
70667;SDS011;58242;51.250;-1.118;2023-02-01T08:21:44;5.07;;;3.45;;
70667;SDS011;58242;51.250;-1.118;2023-02-01T08:24:09;5.32;;;3.38;;
70667;SDS011;58242;51.250;-1.118;2023-02-01T08:26:35;4.75;;;3.22;;
70667;SDS011;58242;51.250;-1.118;2023-02-01T08:29:01;6.70;;;4.22;;
70667;SDS011;58242;51.250;-1.118;2023-02-01T08:31:29;7.00;;;4.20;;
70667;SDS011;58242;51.250;-1.118;2023-02-01T08:33:56;6.38;;;3.40;;
70667;SDS011;58242;51.250;-1.118;2023-02-01T08:36:23;5.50;;;3.67;;
70667;SDS011;58242;51.250;-1.118;2023-02-01T08:38:50;7.65;;;4.00;;
70667;SDS011;58242;51.250;-1.118;2023-02-01T08:41:17;4.13;;;3.45;;
70667;SDS011;58242;51.250;-1.118;2023-02-01T08:43:47;3.47;;;3.20;;
70667;SDS011;58242;51.250;-1.118;2023-02-01T08:46:13;13.38;;;3.83;;
70667;SDS011;58242;51.250;-1.118;2023-02-01T08:48:38;6.03;;;3.17;;
70667;SDS011;58242;51.250;-1.118;2023-02-01T08:51:05;7.60;;;3.40;;
70667;SDS011;58242;51.250;-1.118;2023-02-01T08:53:32;14.10;;;4.25;;
70667;SDS011;58242;51.250;-1.118;2023-02-01T08:55:58;13.40;;;3.30;;
70667;SDS011;58242;51.250;-1.118;2023-02-01T08:58:23;8.13;;;3.20;;
70667;SDS011;58242;51.250;-1.118;2023-02-01T09:00:49;9.95;;;4.47;;
70667;SDS011;58242;51.250;-1.118;2023-02-01T09:03:15;8.38;;;4.20;;
70667;SDS011;58242;51.250;-1.118;2023-02-01T09:05:41;10.68;;;3.72;;
70667;SDS011;58242;51.250;-1.118;2023-02-01T09:08:06;6.80;;;3.33;;
70667;SDS011;58242;51.250;-1.118;2023-02-01T09:10:32;10.35;;;3.58;;
70667;SDS011;58242;51.250;-1.118;2023-02-01T09:12:58;8.15;;;3.90;;
70667;SDS011;58242;51.250;-1.118;2023-02-01T09:15:23;10.10;;;4.22;;
70667;SDS011;58242;51.250;-1.118;2023-02-01T09:17:48;9.73;;;3.70;;
70667;SDS011;58242;51.250;-1.118;2023-02-01T09:20:14;9.13;;;4.18;;
70667;SDS011;58242;51.250;-1.118;2023-02-01T09:22:40;6.55;;;3.42;;
70667;SDS011;58242;51.250;-1.118;2023-02-01T09:25:05;5.15;;;3.42;;
70667;SDS011;58242;51.250;-1.118;2023-02-01T09:27:32;6.70;;;3.47;;
70667;SDS011;58242;51.250;-1.118;2023-02-01T09:29:57;5.00;;;3.40;;
70667;SDS011;58242;51.250;-1.118;2023-02-01T09:32:23;9.27;;;4.10;;
70667;SDS011;58242;51.250;-1.118;2023-02-01T09:34:49;7.30;;;4.00;;
70667;SDS011;58242;51.250;-1.118;2023-02-01T09:37:15;12.43;;;4.45;;
70667;SDS011;58242;51.250;-1.118;2023-02-01T09:39:40;8.10;;;4.15;;
70667;SDS011;58242;51.250;-1.118;2023-02-01T09:47:46;9.18;;;4.05;;
70667;SDS011;58242;51.250;-1.118;2023-02-01T09:50:17;11.05;;;4.18;;
70667;SDS011;58242;51.250;-1.118;2023-02-01T09:52:55;6.53;;;4.07;;
70667;SDS011;58242;51.250;-1.118;2023-02-01T09:55:34;8.27;;;4.70;;
70667;SDS011;58242;51.250;-1.118;2023-02-01T09:58:22;7.88;;;3.88;;
70667;SDS011;58242;51.250;-1.118;2023-02-01T10:00:53;13.73;;;5.00;;
70667;SDS011;58242;51.250;-1.118;2023-02-01T10:03:22;8.63;;;4.15;;
70667;SDS011;58242;51.250;-1.118;2023-02-01T10:09:04;8.23;;;4.50;;
70667;SDS011;58242;51.250;-1.118;2023-02-01T10:16:57;12.35;;;4.82;;
70667;SDS011;58242;51.250;-1.118;2023-02-01T10:22:10;9.48;;;4.90;;
70667;SDS011;58242;51.250;-1.118;2023-02-01T10:27:51;10.98;;;4.72;;
70667;SDS011;58242;51.250;-1.118;2023-02-01T10:30:21;12.30;;;5.38;;
70667;SDS011;58242;51.250;-1.118;2023-02-01T10:32:49;6.95;;;4.40;;
70667;SDS011;58242;51.250;-1.118;2023-02-01T10:35:24;10.32;;;5.00;;
70667;SDS011;58242;51.250;-1.118;2023-02-01T10:37:53;10.93;;;4.50;;
70667;SDS011;58242;51.250;-1.118;2023-02-01T10:40:22;11.65;;;5.30;;
70667;SDS011;58242;51.250;-1.118;2023-02-01T10:42:54;9.65;;;4.90;;
70667;SDS011;58242;51.250;-1.118;2023-02-01T10:45:27;10.20;;;4.80;;
70667;SDS011;58242;51.250;-1.118;2023-02-01T10:47:55;12.45;;;5.78;;
70667;SDS011;58242;51.250;-1.118;2023-02-01T10:50:37;9.48;;;5.82;;
70667;SDS011;58242;51.250;-1.118;2023-02-01T10:53:18;10.95;;;4.75;;
70667;SDS011;58242;51.250;-1.118;2023-02-01T10:55:50;7.68;;;4.75;;
70667;SDS011;58242;51.250;-1.118;2023-02-01T10:58:25;8.65;;;5.30;;
70667;SDS011;58242;51.250;-1.118;2023-02-01T11:00:57;8.15;;;4.93;;
70667;SDS011;58242;51.250;-1.118;2023-02-01T11:03:32;7.10;;;4.20;;
70667;SDS011;58242;51.250;-1.118;2023-02-01T11:06:51;12.88;;;4.30;;
70667;SDS011;58242;51.250;-1.118;2023-02-01T11:08:58;8.07;;;5.15;;
70667;SDS011;58242;51.250;-1.118;2023-02-01T11:11:26;10.95;;;5.55;;
70667;SDS011;58242;51.250;-1.118;2023-02-01T11:13:55;11.93;;;5.25;;
70667;SDS011;58242;51.250;-1.118;2023-02-01T11:17:16;9.18;;;4.60;;
70667;SDS011;58242;51.250;-1.118;2023-02-01T11:19:17;9.63;;;4.40;;
70667;SDS011;58242;51.250;-1.118;2023-02-01T11:21:43;9.55;;;5.07;;
70667;SDS011;58242;51.250;-1.118;2023-02-01T11:24:22;8.57;;;4.85;;
70667;SDS011;58242;51.250;-1.118;2023-02-01T11:26:53;10.70;;;5.30;;
70667;SDS011;58242;51.250;-1.118;2023-02-01T11:29:20;8.45;;;4.53;;
70667;SDS011;58242;51.250;-1.118;2023-02-01T11:31:53;7.88;;;4.85;;
70667;SDS011;58242;51.250;-1.118;2023-02-01T11:34:24;7.63;;;4.72;;
70667;SDS011;58242;51.250;-1.118;2023-02-01T11:36:53;10.73;;;4.75;;
70667;SDS011;58242;51.250;-1.118;2023-02-01T11:39:25;6.90;;;4.03;;
70667;SDS011;58242;51.250;-1.118;2023-02-01T11:42:06;8.63;;;4.57;;
70667;SDS011;58242;51.250;-1.118;2023-02-01T11:44:39;11.80;;;4.10;;
70667;SDS011;58242;51.250;-1.118;2023-02-01T11:49:57;8.88;;;4.75;;
70667;SDS011;58242;51.250;-1.118;2023-02-01T11:58:22;6.82;;;4.15;;
70667;SDS011;58242;51.250;-1.118;2023-02-01T12:14:32;7.72;;;3.88;;
70667;SDS011;58242;51.250;-1.118;2023-02-01T12:20:01;15.50;;;5.22;;
70667;SDS011;58242;51.250;-1.118;2023-02-01T12:28:36;9.55;;;4.82;;
70667;SDS011;58242;51.250;-1.118;2023-02-01T12:36:39;7.25;;;4.38;;
70667;SDS011;58242;51.250;-1.118;2023-02-01T12:42:25;10.43;;;5.40;;
70667;SDS011;58242;51.250;-1.118;2023-02-01T12:45:02;12.80;;;4.80;;
70667;SDS011;58242;51.250;-1.118;2023-02-01T12:47:41;8.98;;;4.28;;
70667;SDS011;58242;51.250;-1.118;2023-02-01T12:50:18;8.25;;;4.15;;
70667;SDS011;58242;51.250;-1.118;2023-02-01T12:58:14;8.27;;;4.70;;
70667;SDS011;58242;51.250;-1.118;2023-02-01T13:00:44;15.93;;;4.60;;
70667;SDS011;58242;51.250;-1.118;2023-02-01T13:08:24;10.30;;;4.63;;
70667;SDS011;58242;51.250;-1.118;2023-02-01T13:10:58;9.75;;;3.97;;
70667;SDS011;58242;51.250;-1.118;2023-02-01T13:13:32;9.77;;;4.57;;
70667;SDS011;58242;51.250;-1.118;2023-02-01T13:18:56;10.40;;;4.57;;
70667;SDS011;58242;51.250;-1.118;2023-02-01T13:21:34;11.70;;;5.20;;
70667;SDS011;58242;51.250;-1.118;2023-02-01T13:24:03;10.75;;;4.90;;
70667;SDS011;58242;51.250;-1.118;2023-02-01T13:26:28;9.88;;;4.82;;
70667;SDS011;58242;51.250;-1.118;2023-02-01T13:42:34;12.50;;;4.85;;
70667;SDS011;58242;51.250;-1.118;2023-02-01T13:45:14;13.02;;;5.45;;
70667;SDS011;58242;51.250;-1.118;2023-02-01T13:47:45;9.38;;;4.97;;
70667;SDS011;58242;51.250;-1.118;2023-02-01T13:50:22;10.88;;;4.55;;
70667;SDS011;58242;51.250;-1.118;2023-02-01T13:52:55;11.68;;;4.82;;
70667;SDS011;58242;51.250;-1.118;2023-02-01T13:55:24;10.60;;;5.35;;
70667;SDS011;58242;51.250;-1.118;2023-02-01T13:57:59;8.05;;;4.50;;
70667;SDS011;58242;51.250;-1.118;2023-02-01T14:00:39;12.38;;;5.35;;
70667;SDS011;58242;51.250;-1.118;2023-02-01T14:10:47;8.65;;;4.82;;
70667;SDS011;58242;51.250;-1.118;2023-02-01T14:23:43;8.07;;;3.83;;
70667;SDS011;58242;51.250;-1.118;2023-02-01T14:26:12;9.52;;;4.65;;
70667;SDS011;58242;51.250;-1.118;2023-02-01T14:28:44;8.45;;;4.55;;
70667;SDS011;58242;51.250;-1.118;2023-02-01T14:31:18;8.60;;;4.18;;
70667;SDS011;58242;51.250;-1.118;2023-02-01T14:33:55;13.13;;;5.47;;
70667;SDS011;58242;51.250;-1.118;2023-02-01T14:36:23;11.73;;;4.90;;
70667;SDS011;58242;51.250;-1.118;2023-02-01T14:38:49;8.43;;;4.47;;
70667;SDS011;58242;51.250;-1.118;2023-02-01T14:41:34;12.98;;;4.97;;
70667;SDS011;58242;51.250;-1.118;2023-02-01T14:49:31;11.10;;;4.30;;
70667;SDS011;58242;51.250;-1.118;2023-02-01T14:51:59;15.18;;;5.88;;
70667;SDS011;58242;51.250;-1.118;2023-02-01T14:54:27;12.52;;;5.72;;
70667;SDS011;58242;51.250;-1.118;2023-02-01T14:56:53;13.60;;;5.28;;
70667;SDS011;58242;51.250;-1.118;2023-02-01T14:59:20;11.00;;;4.97;;
70667;SDS011;58242;51.250;-1.118;2023-02-01T15:01:50;11.27;;;4.45;;
70667;SDS011;58242;51.250;-1.118;2023-02-01T15:04:19;14.32;;;4.50;;
70667;SDS011;58242;51.250;-1.118;2023-02-01T15:09:33;9.93;;;4.60;;
70667;SDS011;58242;51.250;-1.118;2023-02-01T15:12:05;11.60;;;5.18;;
70667;SDS011;58242;51.250;-1.118;2023-02-01T15:14:37;11.98;;;4.18;;
70667;SDS011;58242;51.250;-1.118;2023-02-01T15:22:27;9.45;;;4.53;;
70667;SDS011;58242;51.250;-1.118;2023-02-01T15:24:55;11.57;;;4.70;;
70667;SDS011;58242;51.250;-1.118;2023-02-01T15:27:22;12.00;;;4.43;;
70667;SDS011;58242;51.250;-1.118;2023-02-01T15:29:47;7.68;;;4.05;;
70667;SDS011;58242;51.250;-1.118;2023-02-01T15:32:32;13.35;;;6.03;;
70667;SDS011;58242;51.250;-1.118;2023-02-01T15:35:00;11.70;;;5.43;;
70667;SDS011;58242;51.250;-1.118;2023-02-01T15:37:26;15.73;;;5.93;;
70667;SDS011;58242;51.250;-1.118;2023-02-01T15:40:02;8.75;;;5.28;;
70667;SDS011;58242;51.250;-1.118;2023-02-01T15:42:32;8.82;;;4.45;;
70667;SDS011;58242;51.250;-1.118;2023-02-01T15:44:58;12.10;;;4.63;;
70667;SDS011;58242;51.250;-1.118;2023-02-01T15:47:27;10.25;;;4.70;;
70667;SDS011;58242;51.250;-1.118;2023-02-01T15:49:56;8.20;;;4.03;;
70667;SDS011;58242;51.250;-1.118;2023-02-01T15:52:42;16.02;;;5.07;;
70667;SDS011;58242;51.250;-1.118;2023-02-01T15:57:47;12.07;;;5.15;;
70667;SDS011;58242;51.250;-1.118;2023-02-01T16:00:27;10.20;;;4.80;;
70667;SDS011;58242;51.250;-1.118;2023-02-01T16:02:59;12.48;;;4.63;;
70667;SDS011;58242;51.250;-1.118;2023-02-01T16:08:02;11.63;;;4.90;;
70667;SDS011;58242;51.250;-1.118;2023-02-01T16:10:29;13.75;;;5.10;;
70667;SDS011;58242;51.250;-1.118;2023-02-01T16:12:55;5.93;;;4.15;;
70667;SDS011;58242;51.250;-1.118;2023-02-01T16:15:25;7.65;;;3.70;;
70667;SDS011;58242;51.250;-1.118;2023-02-01T16:17:50;10.38;;;5.00;;
70667;SDS011;58242;51.250;-1.118;2023-02-01T16:20:16;10.23;;;5.57;;
70667;SDS011;58242;51.250;-1.118;2023-02-01T16:22:41;8.25;;;4.63;;
70667;SDS011;58242;51.250;-1.118;2023-02-01T16:25:07;12.10;;;5.47;;
70667;SDS011;58242;51.250;-1.118;2023-02-01T16:27:32;16.02;;;6.15;;
70667;SDS011;58242;51.250;-1.118;2023-02-01T16:29:58;12.65;;;5.03;;
70667;SDS011;58242;51.250;-1.118;2023-02-01T16:32:23;10.38;;;4.78;;
70667;SDS011;58242;51.250;-1.118;2023-02-01T16:34:49;8.55;;;4.38;;
70667;SDS011;58242;51.250;-1.118;2023-02-01T16:37:15;10.32;;;4.60;;
70667;SDS011;58242;51.250;-1.118;2023-02-01T16:39:44;16.27;;;9.45;;
70667;SDS011;58242;51.250;-1.118;2023-02-01T16:42:10;8.25;;;6.10;;
70667;SDS011;58242;51.250;-1.118;2023-02-01T16:44:37;11.90;;;6.22;;
70667;SDS011;58242;51.250;-1.118;2023-02-01T16:47:02;16.75;;;7.38;;
70667;SDS011;58242;51.250;-1.118;2023-02-01T16:49:36;14.57;;;6.20;;
70667;SDS011;58242;51.250;-1.118;2023-02-01T16:52:02;19.35;;;10.23;;
70667;SDS011;58242;51.250;-1.118;2023-02-01T16:54:28;14.68;;;7.50;;
70667;SDS011;58242;51.250;-1.118;2023-02-01T16:56:53;10.30;;;5.93;;
70667;SDS011;58242;51.250;-1.118;2023-02-01T16:59:19;10.73;;;4.88;;
70667;SDS011;58242;51.250;-1.118;2023-02-01T17:01:44;10.27;;;5.88;;
70667;SDS011;58242;51.250;-1.118;2023-02-01T17:04:09;11.70;;;6.70;;
70667;SDS011;58242;51.250;-1.118;2023-02-01T17:06:36;14.25;;;8.05;;
70667;SDS011;58242;51.250;-1.118;2023-02-01T17:09:02;20.55;;;10.65;;